Time;durP1;ratioP1;P1;durP2;ratioP2;P2;SDS_P1;SDS_P2;PMS_P1;PMS_P2;Temp;Humidity;BMP_temperature;BMP_pressure;BME280_temperature;BME280_humidity;BME280_pressure;Samples;Min_cycle;Max_cycle;Signal;HPM_P1;HPM_P2
2022/12/19 00:01:04;;;;;;;1.15;1.15;;;;;;;-0.75;80.67;101446.84;5086887;28;20028;-67
2022/12/19 00:03:30;;;;;;;0.60;0.60;;;;;;;-0.66;80.19;101428.63;5086551;28;20387;-67
2022/12/19 00:06:00;;;;;;;1.35;1.30;;;;;;;-0.61;79.49;101428.88;5086849;28;20024;-68
2022/12/19 00:08:25;;;;;;;0.60;0.60;;;;;;;-0.59;79.46;101422.16;5086649;28;20119;-67
2022/12/19 00:10:59;;;;;;;0.70;0.70;;;;;;;-0.69;79.72;101413.16;5086613;28;20488;-69
2022/12/19 00:13:26;;;;;;;0.60;0.60;;;;;;;-0.70;79.50;101400.31;5086224;28;20032;-68
2022/12/19 00:15:51;;;;;;;0.60;0.60;;;;;;;-0.66;79.47;101399.69;5085169;28;20028;-68
2022/12/19 00:18:17;;;;;;;0.63;0.63;;;;;;;-0.78;79.85;101392.22;5086435;28;20024;-67
2022/12/19 00:20:42;;;;;;;0.70;0.70;;;;;;;-0.47;77.89;101388.78;5086481;28;20029;-68
2022/12/19 00:23:08;;;;;;;0.60;0.60;;;;;;;-0.65;78.19;101365.72;5086174;28;20027;-67
2022/12/19 00:25:33;;;;;;;4.90;4.47;;;;;;;-0.78;78.71;101367.63;5084993;28;20038;-68
2022/12/19 00:27:58;;;;;;;0.60;0.60;;;;;;;-0.81;79.15;101367.44;5085874;28;20024;-68
2022/12/19 00:30:24;;;;;;;0.60;0.60;;;;;;;-0.81;78.73;101380.19;5086140;28;20024;-67
2022/12/19 00:32:49;;;;;;;0.60;0.60;;;;;;;-0.82;78.95;101365.72;5086160;28;20016;-68
2022/12/19 00:35:15;;;;;;;0.60;0.60;;;;;;;-0.56;77.68;101355.13;5086143;28;20035;-68
2022/12/19 00:37:40;;;;;;;0.60;0.60;;;;;;;-0.87;78.66;101367.13;5084801;28;20017;-69
2022/12/19 00:40:06;;;;;;;0.60;0.60;;;;;;;-0.76;78.74;101345.63;5086009;28;20024;-68
2022/12/19 00:42:32;;;;;;;0.60;0.60;;;;;;;-0.68;77.21;101340.94;5085880;28;20025;-68
2022/12/19 00:44:57;;;;;;;0.60;0.60;;;;;;;-0.81;77.31;101310.47;5085968;28;20028;-68
2022/12/19 00:47:26;;;;;;;1.13;1.13;;;;;;;-0.77;77.41;101328.56;5085999;28;20031;-67
2022/12/19 00:49:52;;;;;;;0.60;0.60;;;;;;;-0.97;78.46;101335.16;5084524;28;20032;-68
2022/12/19 00:52:17;;;;;;;6.28;5.68;;;;;;;-1.01;78.09;101321.34;5085825;28;20094;-68
2022/12/19 00:54:42;;;;;;;0.70;0.70;;;;;;;-0.78;77.16;101331.91;5085800;28;20021;-69
2022/12/19 00:57:08;;;;;;;0.60;0.60;;;;;;;-0.85;77.06;101314.56;5084272;28;20025;-68
2022/12/19 00:59:33;;;;;;;0.60;0.60;;;;;;;-0.81;76.59;101315.56;5085824;28;20303;-68
2022/12/19 01:01:59;;;;;;;0.60;0.60;;;;;;;-0.64;75.36;101313.94;5085904;28;20042;-68
2022/12/19 01:04:24;;;;;;;0.60;0.60;;;;;;;-0.82;75.91;101314.72;5084210;28;20032;-68
2022/12/19 01:06:50;;;;;;;0.60;0.60;;;;;;;-0.80;75.49;101302.91;5085525;28;20044;-68
2022/12/19 01:09:15;;;;;;;0.60;0.60;;;;;;;-0.86;75.28;101291.53;5085460;28;20112;-69
2022/12/19 01:14:24;;;;;;;0.60;0.60;;;;;;;-0.65;74.52;101291.75;5085560;28;20047;-67
2022/12/19 01:16:50;;;;;;;0.60;0.60;;;;;;;-0.70;74.13;101288.97;5085414;28;20044;-68
2022/12/19 01:19:16;;;;;;;0.60;0.60;;;;;;;-0.69;74.55;101270.34;5085513;28;20103;-67
2022/12/19 01:21:41;;;;;;;0.60;0.60;;;;;;;-0.74;73.74;101271.75;5085408;28;20082;-67
2022/12/19 01:24:07;;;;;;;0.60;0.60;;;;;;;-0.52;72.98;101275.41;5085121;28;20128;-67
2022/12/19 01:26:32;;;;;;;0.60;0.60;;;;;;;-0.64;72.69;101265.47;5085383;28;20036;-67
2022/12/19 01:28:58;;;;;;;0.60;0.60;;;;;;;-0.64;72.31;101262.91;5085001;28;20032;-68
2022/12/19 01:31:23;;;;;;;0.70;0.70;;;;;;;-0.71;72.93;101255.72;5085367;28;20206;-69
2022/12/19 01:33:48;;;;;;;0.55;0.55;;;;;;;-0.64;72.43;101263.78;5085239;28;20029;-67
2022/12/19 01:36:14;;;;;;;0.60;0.60;;;;;;;-0.80;73.03;101245.94;5085122;28;20175;-69
2022/12/19 01:38:39;;;;;;;8.18;3.53;;;;;;;-0.51;71.76;101246.53;5085067;28;20016;-67
2022/12/19 01:41:05;;;;;;;0.60;0.60;;;;;;;-0.54;71.53;101242.16;5085342;28;20031;-67
2022/12/19 01:43:52;;;;;;;0.60;0.60;;;;;;;-0.58;71.59;101226.63;5084947;28;20115;-67
2022/12/19 01:46:33;;;;;;;0.60;0.60;;;;;;;-0.78;72.33;101214.63;5083775;28;20028;-67
2022/12/19 01:49:00;;;;;;;0.60;0.60;;;;;;;-0.85;72.79;101211.69;5085219;28;20021;-68
2022/12/19 01:51:30;;;;;;;0.60;0.60;;;;;;;-0.72;71.49;101197.88;5085151;28;20051;-68
2022/12/19 01:53:58;;;;;;;0.68;0.68;;;;;;;-0.60;71.23;101198.50;5083793;28;20025;-67
2022/12/19 01:56:30;;;;;;;0.68;0.68;;;;;;;-0.63;71.53;101200.91;5085043;28;20535;-67
2022/12/19 01:58:59;;;;;;;0.60;0.60;;;;;;;-0.71;71.21;101174.13;5086099;28;20032;-67
2022/12/19 02:01:25;;;;;;;0.50;0.50;;;;;;;-0.76;71.51;101184.09;5089118;28;20095;-67
2022/12/19 02:03:52;;;;;;;0.60;0.60;;;;;;;-0.78;71.55;101184.00;5089093;28;20029;-70
2022/12/19 02:06:18;;;;;;;0.50;0.50;;;;;;;-0.79;71.80;101181.38;5089160;28;20020;-67
2022/12/19 02:08:46;;;;;;;0.70;0.70;;;;;;;-0.41;69.67;101171.34;5088872;28;20081;-68
2022/12/19 02:11:11;;;;;;;0.80;0.80;;;;;;;-0.83;70.95;101166.75;5087729;28;20028;-68
2022/12/19 02:13:37;;;;;;;1.20;1.15;;;;;;;-0.60;70.38;101147.47;5088488;28;20021;-67
2022/12/19 02:16:12;;;;;;;0.60;0.60;;;;;;;-0.87;71.63;101160.59;5088962;28;20031;-68
2022/12/19 02:19:10;;;;;;;0.60;0.60;;;;;;;-0.55;70.16;101156.25;5088813;28;20025;-67
2022/12/19 02:21:42;;;;;;;0.60;0.60;;;;;;;-0.60;69.38;101151.69;5088850;28;20024;-67
2022/12/19 02:24:35;;;;;;;0.65;0.65;;;;;;;-0.71;69.63;101151.16;5088577;28;20045;-68
2022/12/19 02:27:06;;;;;;;5.63;5.07;;;;;;;-0.54;69.14;101150.34;5088489;28;20032;-67
2022/12/19 02:29:47;;;;;;;0.60;0.60;;;;;;;-0.70;69.49;101137.63;5088838;28;20132;-68
2022/12/19 02:32:18;;;;;;;0.60;0.60;;;;;;;-0.73;69.17;101151.09;5088665;28;20106;-67
2022/12/19 02:34:54;;;;;;;0.90;0.90;;;;;;;-0.63;68.72;101147.34;5088582;28;20025;-68
2022/12/19 02:37:35;;;;;;;0.75;0.75;;;;;;;-0.62;68.55;101138.88;5088631;28;20032;-68
2022/12/19 02:40:19;;;;;;;0.60;0.60;;;;;;;-0.67;68.75;101127.59;5088408;28;20056;-68
2022/12/19 02:42:49;;;;;;;0.60;0.60;;;;;;;-0.55;68.00;101114.53;5086779;28;20028;-67
2022/12/19 02:45:18;;;;;;;1.40;1.35;;;;;;;-0.44;67.93;101132.91;5088509;28;20030;-67
2022/12/19 02:47:43;;;;;;;3.20;3.00;;;;;;;-0.40;66.98;101127.19;5086870;28;20029;-68
2022/12/19 02:50:10;;;;;;;0.60;0.60;;;;;;;-0.72;68.56;101114.63;5088261;28;20017;-68
2022/12/19 02:52:35;;;;;;;0.55;0.55;;;;;;;-0.45;67.24;101121.88;5088145;28;20024;-68
2022/12/19 02:55:06;;;;;;;0.60;0.60;;;;;;;-0.52;67.51;101114.69;5088284;28;20056;-68
2022/12/19 02:57:42;;;;;;;0.60;0.60;;;;;;;-0.45;66.68;101110.78;5088022;28;20040;-68
2022/12/19 03:00:12;;;;;;;0.60;0.60;;;;;;;-0.32;65.64;101097.78;5088076;28;20431;-67
2022/12/19 03:03:19;;;;;;;0.60;0.60;;;;;;;-0.38;65.56;101110.25;5087860;28;20541;-68
2022/12/19 03:06:15;;;;;;;0.70;0.70;;;;;;;-0.38;65.24;101120.47;5086513;28;20104;-67
2022/12/19 03:08:52;;;;;;;0.60;0.60;;;;;;;-0.39;64.82;101098.31;5087554;28;20020;-67
2022/12/19 03:11:22;;;;;;;0.60;0.60;;;;;;;-0.45;64.87;101110.78;5086600;28;20024;-68
2022/12/19 03:13:58;;;;;;;0.60;0.60;;;;;;;-0.50;64.53;101075.69;5087516;28;20114;-67
2022/12/19 03:16:24;;;;;;;0.57;0.57;;;;;;;-0.41;64.40;101082.03;5087754;28;20100;-68
2022/12/19 03:18:53;;;;;;;0.50;0.50;;;;;;;-0.45;64.19;101077.59;5087498;28;20023;-68
2022/12/19 03:21:24;;;;;;;0.60;0.60;;;;;;;-0.50;64.51;101073.13;5087737;28;20039;-68
2022/12/19 03:23:52;;;;;;;0.80;0.80;;;;;;;-0.41;63.71;101084.59;5087429;28;20106;-67
2022/12/19 03:26:21;;;;;;;0.60;0.60;;;;;;;-0.33;62.93;101077.28;5087629;28;20028;-67
2022/12/19 03:29:04;;;;;;;0.60;0.60;;;;;;;-0.39;62.99;101066.03;5087167;28;20484;-67
2022/12/19 03:31:32;;;;;;;0.60;0.60;;;;;;;-0.48;63.42;101049.41;5086152;28;20078;-68
2022/12/19 03:34:11;;;;;;;0.80;0.80;;;;;;;-0.42;63.32;101035.25;5087482;28;20460;-67
2022/12/19 03:36:42;;;;;;;0.60;0.60;;;;;;;-0.33;61.76;101039.03;5087453;28;20025;-68
2022/12/19 03:39:09;;;;;;;0.80;0.80;;;;;;;-0.34;61.91;101037.28;5087330;28;20537;-68
2022/12/19 03:44:25;;;;;;;0.80;0.80;;;;;;;-0.43;61.90;101030.09;5087239;28;20451;-67
2022/12/19 03:47:03;;;;;;;0.60;0.60;;;;;;;-0.38;61.26;101010.75;5087345;28;20028;-68
2022/12/19 03:49:28;;;;;;;1.20;1.17;;;;;;;-0.37;60.70;101004.84;5086912;28;20033;-67
2022/12/19 03:52:13;;;;;;;0.60;0.60;;;;;;;-0.51;61.38;101007.63;5087171;28;20078;-68
2022/12/19 03:54:46;;;;;;;0.60;0.60;;;;;;;-0.35;60.25;100989.63;5086929;28;20032;-67
2022/12/19 03:57:28;;;;;;;0.60;0.60;;;;;;;-0.43;60.68;100992.69;5086877;28;20080;-70
2022/12/19 04:00:05;;;;;;;0.80;0.80;;;;;;;-0.44;60.55;100983.28;5087115;28;20066;-69
2022/12/19 04:02:35;;;;;;;0.70;0.70;;;;;;;-0.60;61.10;101007.19;5086799;28;20154;-68
2022/12/19 04:05:11;;;;;;;0.60;0.60;;;;;;;-0.51;61.14;100982.13;5086934;28;20021;-68
2022/12/19 04:07:38;;;;;;;0.75;0.75;;;;;;;-0.52;60.77;100999.91;5086881;28;20031;-69
2022/12/19 04:10:10;;;;;;;0.60;0.60;;;;;;;-0.70;61.52;100995.69;5086715;28;20024;-68
2022/12/19 04:12:41;;;;;;;0.63;0.63;;;;;;;-0.54;60.85;100994.72;5086629;28;20031;-68
2022/12/19 04:15:14;;;;;;;0.70;0.70;;;;;;;-0.61;61.30;100981.63;5085266;28;20029;-68
2022/12/19 04:17:53;;;;;;;0.60;0.60;;;;;;;-0.66;61.56;100989.06;5086645;28;20024;-68
2022/12/19 04:20:21;;;;;;;10.52;5.28;;;;;;;-0.85;62.36;100982.22;5086383;28;20058;-68
2022/12/19 04:23:16;;;;;;;0.70;0.70;;;;;;;-0.77;62.16;100981.75;5086100;28;20044;-69
2022/12/19 04:25:46;;;;;;;0.60;0.60;;;;;;;-0.80;62.14;100958.69;5086483;28;20073;-68
2022/12/19 04:28:17;;;;;;;0.70;0.70;;;;;;;-0.88;62.11;100958.31;5085991;28;20024;-68
2022/12/19 04:30:44;;;;;;;0.90;0.90;;;;;;;-0.64;60.76;100951.75;5086461;28;20021;-68
2022/12/19 04:33:09;;;;;;;0.70;0.70;;;;;;;-1.01;62.03;100940.72;5086146;28;20056;-68
2022/12/19 04:35:35;;;;;;;0.63;0.63;;;;;;;-0.96;61.98;100948.56;5086228;28;20056;-68
2022/12/19 04:38:01;;;;;;;0.68;0.68;;;;;;;-1.28;63.51;100929.25;5086555;28;20044;-69
2022/12/19 04:40:27;;;;;;;0.60;0.60;;;;;;;-1.09;63.20;100942.88;5084858;28;20031;-68
2022/12/19 04:42:52;;;;;;;0.60;0.60;;;;;;;-1.11;63.18;100934.28;5085986;28;20025;-69
2022/12/19 04:45:18;;;;;;;0.93;0.93;;;;;;;-1.23;63.23;100932.00;5086049;28;20029;-68
2022/12/19 04:47:43;;;;;;;0.60;0.60;;;;;;;-1.30;63.80;100933.41;5084662;28;20091;-68
2022/12/19 04:50:09;;;;;;;0.70;0.70;;;;;;;-1.23;63.80;100933.69;5085970;28;20041;-68
2022/12/19 04:52:34;;;;;;;0.70;0.70;;;;;;;-1.17;63.11;100919.59;5085832;28;20028;-67
2022/12/19 04:55:00;;;;;;;0.63;0.63;;;;;;;-1.02;62.61;100924.53;5085937;28;20028;-68
2022/12/19 04:57:28;;;;;;;0.65;0.65;;;;;;;-1.25;63.61;100931.09;5085624;28;20063;-67
2022/12/19 04:59:54;;;;;;;0.80;0.80;;;;;;;-1.29;63.97;100930.06;5085929;28;20017;-67
2022/12/19 05:02:19;;;;;;;0.70;0.70;;;;;;;-1.20;63.81;100918.56;5084475;28;20084;-68
2022/12/19 05:04:44;;;;;;;0.60;0.60;;;;;;;-1.32;64.16;100919.72;5085653;28;20020;-68
2022/12/19 05:07:11;;;;;;;0.60;0.60;;;;;;;-1.28;63.91;100919.06;5085719;28;20047;-69
2022/12/19 05:09:37;;;;;;;0.60;0.60;;;;;;;-1.37;63.99;100921.16;5085396;28;20028;-69
2022/12/19 05:12:02;;;;;;;0.60;0.60;;;;;;;-1.22;63.68;100905.75;5085528;28;20027;-68
2022/12/19 05:14:28;;;;;;;0.65;0.65;;;;;;;-1.41;64.40;100901.44;5085284;28;20017;-69
2022/12/19 05:16:53;;;;;;;0.60;0.60;;;;;;;-1.37;64.92;100905.88;5085652;28;20028;-68
2022/12/19 05:19:18;;;;;;;0.70;0.70;;;;;;;-1.38;64.57;100893.94;5085428;28;20012;-67
2022/12/19 05:21:44;;;;;;;0.70;0.70;;;;;;;-1.35;64.19;100889.00;5085467;28;20052;-69
2022/12/19 05:24:09;;;;;;;0.70;0.70;;;;;;;-1.30;64.15;100894.31;5085293;28;20055;-70
2022/12/19 05:26:35;;;;;;;0.60;0.60;;;;;;;-1.30;64.44;100890.09;5085327;28;20043;-68
2022/12/19 05:29:00;;;;;;;0.60;0.60;;;;;;;-1.37;64.44;100880.41;5085259;28;20372;-68
2022/12/19 05:31:26;;;;;;;0.80;0.80;;;;;;;-1.31;64.82;100893.44;5085377;28;20024;-67
2022/12/19 05:33:51;;;;;;;0.60;0.60;;;;;;;-1.39;64.91;100884.56;5084486;28;20028;-67
2022/12/19 05:36:17;;;;;;;0.60;0.60;;;;;;;-1.23;64.56;100886.16;5085305;28;20028;-67
2022/12/19 05:38:43;;;;;;;2.08;1.98;;;;;;;-1.53;65.49;100884.75;5085127;28;20016;-67
2022/12/19 05:41:14;;;;;;;0.80;0.80;;;;;;;-1.35;65.42;100890.66;5084915;28;20469;-66
2022/12/19 05:43:39;;;;;;;0.70;0.70;;;;;;;-1.57;66.39;100882.88;5083667;28;20021;-68
2022/12/19 05:46:05;;;;;;;0.70;0.70;;;;;;;-1.44;66.11;100870.72;5085148;28;20028;-67
2022/12/19 05:48:31;;;;;;;0.60;0.60;;;;;;;-1.30;65.33;100868.84;5085093;28;20074;-66
2022/12/19 05:50:57;;;;;;;0.70;0.70;;;;;;;-1.31;65.61;100855.22;5085312;28;20055;-67
2022/12/19 05:53:22;;;;;;;0.60;0.60;;;;;;;-1.40;66.06;100854.78;5085099;28;20058;-66
2022/12/19 05:55:48;;;;;;;2.25;2.15;;;;;;;-1.37;65.77;100835.44;5085138;28;20020;-69
2022/12/19 05:58:13;;;;;;;0.63;0.63;;;;;;;-1.31;65.74;100845.03;5084958;28;20598;-67
2022/12/19 06:00:38;;;;;;;0.60;0.60;;;;;;;-1.20;64.67;100821.75;5085017;28;20024;-67
2022/12/19 06:03:04;;;;;;;0.80;0.80;;;;;;;-1.43;66.03;100822.41;5084959;28;20035;-67
2022/12/19 06:05:30;;;;;;;0.63;0.63;;;;;;;-1.48;66.23;100822.97;5084827;28;20055;-68
2022/12/19 06:07:56;;;;;;;0.60;0.60;;;;;;;-1.28;65.91;100826.47;5084967;28;20025;-68
2022/12/19 06:10:21;;;;;;;2.15;2.05;;;;;;;-1.39;66.23;100825.97;5084932;28;20081;-67
2022/12/19 06:12:46;;;;;;;0.65;0.65;;;;;;;-1.61;66.54;100807.09;5084815;28;20493;-67
2022/12/19 06:15:12;;;;;;;0.55;0.55;;;;;;;-1.48;66.68;100825.50;5084758;28;20029;-67
2022/12/19 06:17:37;;;;;;;0.60;0.60;;;;;;;-1.63;67.41;100824.84;5083560;28;20021;-67
2022/12/19 06:20:04;;;;;;;0.65;0.65;;;;;;;-1.60;67.54;100825.81;5084758;28;20379;-67
2022/12/19 06:22:29;;;;;;;0.60;0.60;;;;;;;-1.33;66.68;100826.28;5084869;28;20088;-67
2022/12/19 06:24:54;;;;;;;0.60;0.60;;;;;;;-1.55;67.54;100837.09;5084882;28;20045;-67
2022/12/19 06:27:20;;;;;;;0.70;0.70;;;;;;;-1.52;67.94;100829.63;5084775;28;20032;-65
2022/12/19 06:29:45;;;;;;;0.68;0.68;;;;;;;-1.68;68.19;100820.34;5084819;28;20035;-68
2022/12/19 06:32:11;;;;;;;4.32;4.13;;;;;;;-1.67;68.54;100834.81;5084638;28;20031;-66
2022/12/19 06:34:36;;;;;;;0.75;0.75;;;;;;;-1.48;67.57;100826.41;5084752;28;20032;-67
2022/12/19 06:37:02;;;;;;;0.60;0.60;;;;;;;-1.44;68.02;100825.75;5082795;28;20052;-67
2022/12/19 06:39:27;;;;;;;0.70;0.70;;;;;;;-1.41;68.13;100832.66;5083933;28;20024;-67
2022/12/19 06:44:37;;;;;;;0.95;0.95;;;;;;;-1.38;67.94;100822.63;5085006;28;20028;-67
2022/12/19 06:47:02;;;;;;;0.60;0.60;;;;;;;-1.46;68.23;100835.00;5087977;28;20020;-66
2022/12/19 06:49:27;;;;;;;0.70;0.70;;;;;;;-1.50;68.77;100833.09;5088050;28;20020;-67
2022/12/19 06:51:53;;;;;;;0.70;0.70;;;;;;;-1.45;68.79;100841.81;5088089;28;20085;-66
2022/12/19 06:54:18;;;;;;;0.90;0.90;;;;;;;-1.30;68.21;100818.78;5086359;28;20024;-66
2022/12/19 06:56:44;;;;;;;0.60;0.60;;;;;;;-1.56;68.75;100818.41;5087963;28;20050;-67
2022/12/19 06:59:15;;;;;;;0.68;0.68;;;;;;;-1.58;69.45;100820.00;5087724;28;20051;-67
2022/12/19 07:01:56;;;;;;;1.05;1.05;;;;;;;-1.28;68.94;100827.34;5088177;28;20020;-67
2022/12/19 07:04:33;;;;;;;2.00;1.90;;;;;;;-1.41;69.05;100791.91;5088111;28;20021;-67
2022/12/19 07:06:59;;;;;;;0.60;0.60;;;;;;;-1.48;69.70;100794.94;5088134;28;20028;-66
2022/12/19 07:09:26;;;;;;;1.42;1.42;;;;;;;-1.43;69.71;100802.03;5087665;28;20040;-67
2022/12/19 07:11:51;;;;;;;0.70;0.70;;;;;;;-1.55;70.14;100788.72;5088180;28;20012;-66
2022/12/19 07:14:17;;;;;;;0.70;0.70;;;;;;;-1.37;69.80;100786.16;5087691;28;20032;-68
2022/12/19 07:16:44;;;;;;;0.75;0.75;;;;;;;-1.37;69.66;100788.69;5087930;28;20099;-68
2022/12/19 07:19:10;;;;;;;0.60;0.60;;;;;;;-1.46;70.25;100791.69;5087904;28;20016;-68
2022/12/19 07:21:35;;;;;;;11.63;3.28;;;;;;;-1.56;71.04;100779.31;5087460;28;20071;-68
2022/12/19 07:24:02;;;;;;;0.68;0.68;;;;;;;-1.48;70.67;100784.75;5087332;28;20101;-67
2022/12/19 07:26:28;;;;;;;0.60;0.60;;;;;;;-1.32;70.42;100760.88;5087637;28;20427;-68
2022/12/19 07:28:53;;;;;;;0.70;0.70;;;;;;;-1.41;70.70;100774.09;5085983;28;20024;-68
2022/12/19 07:31:19;;;;;;;0.60;0.60;;;;;;;-1.31;70.83;100771.16;5087607;28;20025;-67
2022/12/19 07:33:44;;;;;;;0.60;0.60;;;;;;;-1.26;70.48;100766.25;5087539;28;20459;-66
2022/12/19 07:36:09;;;;;;;1.63;1.55;;;;;;;-1.48;71.65;100769.50;5087400;28;20065;-66
2022/12/19 07:38:35;;;;;;;1.20;1.20;;;;;;;-1.44;71.29;100756.13;5087326;28;20095;-65
2022/12/19 07:41:01;;;;;;;0.60;0.60;;;;;;;-1.32;71.43;100766.88;5087361;28;20028;-66
2022/12/19 07:43:26;;;;;;;1.60;1.50;;;;;;;-1.25;70.77;100753.59;5087107;28;20025;-67
2022/12/19 07:45:55;;;;;;;5.15;3.53;;;;;;;-1.31;71.40;100766.03;5087286;28;20405;-67
2022/12/19 07:48:21;;;;;;;0.60;0.60;;;;;;;-1.56;71.96;100756.41;5087150;28;20365;-67
2022/12/19 07:50:47;;;;;;;1.40;1.40;;;;;;;-1.47;72.26;100745.78;5087624;28;20028;-68
2022/12/19 07:53:14;;;;;;;0.80;0.80;;;;;;;-1.24;71.39;100736.63;5085885;28;20027;-68
2022/12/19 07:55:39;;;;;;;0.77;0.77;;;;;;;-1.28;71.66;100753.44;5087078;28;20025;-67
2022/12/19 07:58:05;;;;;;;0.70;0.70;;;;;;;-1.44;72.26;100738.28;5086325;28;20028;-68
2022/12/19 08:00:30;;;;;;;0.70;0.70;;;;;;;-1.44;72.37;100733.19;5087165;28;20031;-69
2022/12/19 08:02:57;;;;;;;0.60;0.60;;;;;;;-1.32;72.42;100720.13;5086799;28;20050;-67
2022/12/19 08:05:23;;;;;;;0.65;0.65;;;;;;;-1.25;72.16;100710.28;5085661;28;20032;-67
2022/12/19 08:07:51;;;;;;;0.60;0.60;;;;;;;-1.35;72.73;100715.78;5086878;28;20380;-66
2022/12/19 08:10:18;;;;;;;0.70;0.70;;;;;;;-1.22;72.20;100695.94;5086630;28;20103;-66
2022/12/19 08:12:44;;;;;;;0.60;0.60;;;;;;;-1.16;72.18;100697.09;5086701;28;20035;-66
2022/12/19 08:15:09;;;;;;;0.60;0.60;;;;;;;-1.28;72.41;100707.59;5086771;28;20305;-67
2022/12/19 08:17:35;;;;;;;13.63;2.95;;;;;;;-1.38;72.83;100700.34;5086775;28;20052;-68
2022/12/19 08:20:00;;;;;;;0.90;0.90;;;;;;;-1.25;72.56;100686.50;5086591;28;20046;-67
2022/12/19 08:22:28;;;;;;;2.35;2.25;;;;;;;-1.25;72.70;100672.06;5086600;28;20066;-67
2022/12/19 08:24:53;;;;;;;0.60;0.60;;;;;;;-1.31;72.77;100684.53;5086265;28;20048;-68
2022/12/19 08:27:19;;;;;;;0.60;0.60;;;;;;;-1.33;72.93;100678.53;5086376;28;20475;-67
2022/12/19 08:29:44;;;;;;;0.65;0.65;;;;;;;-1.10;72.73;100681.19;5086376;28;20080;-66
2022/12/19 08:32:10;;;;;;;0.60;0.60;;;;;;;-1.18;72.96;100683.41;5086399;28;20016;-67
2022/12/19 08:34:35;;;;;;;0.70;0.70;;;;;;;-1.18;72.90;100680.00;5086256;28;20104;-68
2022/12/19 08:37:00;;;;;;;0.60;0.60;;;;;;;-1.42;73.90;100688.31;5086369;28;20080;-67
2022/12/19 08:39:26;;;;;;;1.23;1.23;;;;;;;-1.10;73.04;100678.63;5086177;28;20021;-67
2022/12/19 08:41:51;;;;;;;0.60;0.60;;;;;;;-1.34;73.76;100671.66;5086137;28;20086;-67
2022/12/19 08:44:17;;;;;;;1.88;1.77;;;;;;;-1.35;73.89;100669.03;5085948;28;20021;-67
2022/12/19 08:46:42;;;;;;;0.80;0.80;;;;;;;-1.27;73.59;100657.53;5086321;28;20431;-67
2022/12/19 08:49:07;;;;;;;1.20;1.20;;;;;;;-1.22;73.73;100660.28;5085838;28;20025;-66
2022/12/19 08:51:33;;;;;;;0.93;0.93;;;;;;;-1.32;73.96;100656.44;5085954;28;20088;-67
2022/12/19 08:53:59;;;;;;;0.80;0.80;;;;;;;-1.29;73.94;100662.56;5085871;28;20078;-68
2022/12/19 08:56:24;;;;;;;3.20;2.90;;;;;;;-1.30;74.18;100653.19;5085993;28;20100;-67
2022/12/19 08:58:51;;;;;;;1.90;1.80;;;;;;;-1.28;74.09;100671.94;5085801;28;20034;-67
2022/12/19 09:01:18;;;;;;;0.70;0.70;;;;;;;-1.25;74.53;100661.03;5085886;28;20032;-66
2022/12/19 09:03:45;;;;;;;0.60;0.60;;;;;;;-1.39;75.14;100665.50;5085785;28;20024;-67
2022/12/19 09:06:12;;;;;;;0.60;0.60;;;;;;;-1.15;73.85;100654.66;5085780;28;20115;-67
2022/12/19 09:08:38;;;;;;;0.90;0.90;;;;;;;-0.98;73.63;100663.03;5085587;28;20020;-66
2022/12/19 09:11:10;;;;;;;0.52;0.52;;;;;;;-1.19;74.15;100658.75;5085705;28;20061;-67
2022/12/19 09:13:36;;;;;;;;;;;;;;;-1.16;74.67;100650.34;5084574;28;20024;-66
2022/12/19 09:16:06;;;;;;;0.63;0.63;;;;;;;-0.93;73.47;100646.25;5085487;28;19909;-67
2022/12/19 09:18:32;;;;;;;0.65;0.65;;;;;;;-1.00;73.67;100636.59;5085708;28;20033;-68
2022/12/19 09:20:58;;;;;;;0.60;0.60;;;;;;;-1.12;74.00;100631.84;5085545;28;20043;-67
2022/12/19 09:23:27;;;;;;;4.28;4.03;;;;;;;-1.18;74.41;100631.59;5085457;28;20100;-67
2022/12/19 09:25:54;;;;;;;1.30;1.30;;;;;;;-1.08;74.79;100632.84;5085518;28;20024;-66
2022/12/19 09:28:20;;;;;;;0.70;0.70;;;;;;;-1.09;74.46;100631.09;5083922;28;20107;-67
2022/12/19 09:30:53;;;;;;;3.75;3.58;;;;;;;-1.05;74.31;100612.59;5085473;28;20480;-67
2022/12/19 09:33:18;;;;;;;0.68;0.68;;;;;;;-1.09;74.59;100624.34;5085488;28;20094;-67
2022/12/19 09:35:54;;;;;;;4.13;3.83;;;;;;;-0.95;74.27;100612.19;5084129;28;20028;-67
2022/12/19 09:38:21;;;;;;;0.70;0.70;;;;;;;-0.92;74.17;100619.06;5085457;28;20099;-67
2022/12/19 09:41:12;;;;;;;0.70;0.70;;;;;;;-0.97;74.68;100608.69;5084063;28;20048;-68
2022/12/19 09:44:09;;;;;;;0.85;0.85;;;;;;;-1.01;74.73;100609.38;5085095;28;20066;-68
2022/12/19 09:46:41;;;;;;;2.10;2.00;;;;;;;-1.01;75.46;100609.38;5085424;28;20416;-67
2022/12/19 09:49:17;;;;;;;1.05;1.05;;;;;;;-0.86;74.74;100598.09;5085291;28;20020;-67
2022/12/19 09:51:52;;;;;;;0.70;0.70;;;;;;;-0.81;74.70;100597.44;5085435;28;20072;-67
2022/12/19 09:54:32;;;;;;;0.68;0.68;;;;;;;-0.93;75.44;100592.72;5084917;28;20025;-65
2022/12/19 09:57:03;;;;;;;0.98;0.98;;;;;;;-0.79;75.19;100605.16;5085334;28;20082;-68
2022/12/19 09:59:47;;;;;;;1.13;1.13;;;;;;;-0.80;75.65;100600.88;5085167;28;20582;-67
2022/12/19 10:02:12;;;;;;;4.88;3.88;;;;;;;-0.65;75.43;100587.88;5085105;28;20029;-67
2022/12/19 10:04:46;;;;;;;0.70;0.70;;;;;;;-0.73;75.90;100609.63;5085177;28;20100;-67
2022/12/19 10:07:18;;;;;;;0.95;0.95;;;;;;;-0.77;76.74;100591.66;5085201;28;20062;-66
2022/12/19 10:09:44;;;;;;;;;;;;;;;-0.59;76.04;100593.22;5085519;28;20025;-66
2022/12/19 10:12:28;;;;;;;0.70;0.70;;;;;;;-0.96;77.33;100591.72;5083709;28;19908;-67
2022/12/19 10:15:12;;;;;;;0.65;0.65;;;;;;;-0.70;76.92;100574.09;5085000;28;20029;-66
2022/12/19 10:17:56;;;;;;;0.77;0.77;;;;;;;-0.66;77.18;100581.03;5085135;28;20095;-67
2022/12/19 10:20:51;;;;;;;0.57;0.57;;;;;;;-0.72;77.52;100566.38;5086926;28;20025;-68
2022/12/19 10:23:35;;;;;;;7.18;2.75;;;;;;;-0.72;78.44;100545.97;5083801;28;20041;-66
2022/12/19 10:26:26;;;;;;;0.60;0.60;;;;;;;-0.64;78.22;100556.47;5087567;28;20032;-66
2022/12/19 10:29:10;;;;;;;0.68;0.68;;;;;;;-0.83;78.88;100553.16;5088568;28;20024;-67
2022/12/19 10:31:52;;;;;;;1.65;1.58;;;;;;;-0.82;79.06;100551.50;5088939;28;20526;-67
2022/12/19 10:34:20;;;;;;;0.70;0.70;;;;;;;-0.77;79.08;100544.91;5087189;28;20032;-68
2022/12/19 10:36:52;;;;;;;4.78;4.47;;;;;;;-0.56;78.26;100539.78;5088771;28;20028;-68
2022/12/19 10:39:23;;;;;;;2.70;2.60;;;;;;;-0.61;78.60;100538.75;5088774;28;20020;-67
2022/12/19 10:41:53;;;;;;;0.70;0.70;;;;;;;-0.64;79.36;100536.09;5088714;28;20032;-67
2022/12/19 10:44:20;;;;;;;1.55;1.55;;;;;;;-0.63;78.86;100542.91;5087068;28;20028;-68
2022/12/19 10:48:18;;;;;;;0.98;0.98;;;;;;;-0.60;79.31;100514.97;5082664;28;20376;-69
2022/12/19 10:50:44;;;;;;;0.50;0.50;;;;;;;-0.89;80.35;100525.75;5082462;28;20040;-67
2022/12/19 10:53:11;;;;;;;0.60;0.60;;;;;;;-0.78;80.23;100523.63;5082598;28;20021;-67
2022/12/19 10:55:49;;;;;;;0.98;0.98;;;;;;;-0.74;80.50;100522.09;5082313;28;20025;-66
2022/12/19 10:58:20;;;;;;;0.70;0.70;;;;;;;-0.85;81.12;100513.13;5082337;28;20165;-66
2022/12/19 11:01:09;;;;;;;0.70;0.70;;;;;;;-0.77;81.40;100512.63;5082560;28;20048;-67
2022/12/19 11:03:35;;;;;;;0.70;0.70;;;;;;;-0.61;80.21;100514.91;5078663;28;20061;-67
2022/12/19 11:06:02;;;;;;;0.60;0.60;;;;;;;-0.86;81.47;100519.06;5082051;28;20024;-65
2022/12/19 11:08:28;;;;;;;0.60;0.60;;;;;;;-0.61;81.24;100514.91;5082404;28;20024;-66
2022/12/19 11:11:02;;;;;;;0.55;0.55;;;;;;;-0.73;81.58;100507.66;5080972;28;20108;-66
2022/12/19 11:13:38;;;;;;;0.80;0.80;;;;;;;-0.77;82.12;100502.41;5082038;28;20399;-67
2022/12/19 11:16:05;;;;;;;0.75;0.75;;;;;;;-0.51;81.18;100505.13;5080621;28;20033;-65
2022/12/19 11:18:44;;;;;;;1.13;1.13;;;;;;;-0.72;81.72;100494.09;5081898;28;20032;-66
2022/12/19 11:21:12;;;;;;;4.05;3.80;;;;;;;-0.71;82.54;100498.38;5081922;28;20032;-65
2022/12/19 11:23:52;;;;;;;6.97;4.80;;;;;;;-0.66;82.71;100473.94;5081983;28;20092;-65
2022/12/19 11:26:46;;;;;;;0.60;0.60;;;;;;;-0.69;82.44;100473.81;5081794;28;20495;-64
2022/12/19 11:29:40;;;;;;;0.60;0.60;;;;;;;-0.42;81.88;100463.81;5080568;28;20045;-64
2022/12/19 11:32:23;;;;;;;0.60;0.60;;;;;;;-0.60;82.38;100458.88;5079607;28;20047;-64
2022/12/19 11:34:50;;;;;;;0.60;0.60;;;;;;;-0.60;81.95;100448.69;5082023;28;20036;-64
2022/12/19 11:37:32;;;;;;;0.57;0.57;;;;;;;-0.71;83.14;100444.84;5081788;28;20036;-65
2022/12/19 11:40:00;;;;;;;;;;;;;;;-0.48;82.50;100447.41;5082077;28;20134;-64
2022/12/19 11:42:29;;;;;;;0.60;0.60;;;;;;;-0.62;83.35;100435.00;5081680;28;19992;-64
2022/12/19 11:45:19;;;;;;;0.60;0.60;;;;;;;-0.56;82.21;100424.16;5080007;28;20055;-65
2022/12/19 11:47:52;;;;;;;0.60;0.60;;;;;;;-0.66;82.99;100412.75;5081214;28;20049;-65